createdAt,value
2018-12-14T00:01:03.307Z,12.47
2018-12-14T00:03:33.127Z,12.30
2018-12-14T00:06:02.940Z,12.47
2018-12-14T00:08:32.772Z,11.97
2018-12-14T00:11:02.662Z,12.20
2018-12-14T00:13:32.632Z,13.30
2018-12-14T00:16:02.412Z,12.57
2018-12-14T00:18:32.411Z,11.63
2018-12-14T00:21:02.207Z,11.57
2018-12-14T00:23:32.273Z,12.00
2018-12-14T00:26:02.212Z,11.77
2018-12-14T00:28:31.996Z,11.93
2018-12-14T00:31:01.750Z,13.07
2018-12-14T00:33:31.662Z,11.80
2018-12-14T00:36:01.579Z,13.70
2018-12-14T00:38:31.602Z,11.97
2018-12-14T00:41:01.402Z,13.33
2018-12-14T00:43:31.203Z,12.00
2018-12-14T00:46:01.120Z,12.83
2018-12-14T00:48:31.026Z,11.73
2018-12-14T00:51:00.797Z,10.80
2018-12-14T00:53:30.737Z,11.53
2018-12-14T00:56:00.591Z,11.63
2018-12-14T00:58:30.412Z,11.83
2018-12-14T01:01:00.159Z,11.67
2018-12-14T01:03:30.158Z,11.53
2018-12-14T01:05:59.982Z,11.43
2018-12-14T01:08:29.991Z,11.43
2018-12-14T01:10:59.756Z,10.87
2018-12-14T01:13:29.591Z,11.57
2018-12-14T01:15:59.527Z,10.87
2018-12-14T01:18:29.646Z,11.33
2018-12-14T01:20:59.500Z,10.27
2018-12-14T01:23:29.347Z,10.63
2018-12-14T01:25:59.217Z,10.23
2018-12-14T01:28:28.972Z,11.50
2018-12-14T01:30:58.792Z,10.27
2018-12-14T01:33:28.787Z,11.07
2018-12-14T01:35:58.627Z,11.17
2018-12-14T01:38:28.627Z,12.30
2018-12-14T01:40:58.457Z,10.67
2018-12-14T01:43:28.326Z,11.37
2018-12-14T01:45:58.146Z,10.40
2018-12-14T01:48:27.968Z,11.07
2018-12-14T01:50:57.771Z,11.03
2018-12-14T01:53:27.668Z,11.60
2018-12-14T01:55:57.511Z,11.20
2018-12-14T01:58:27.447Z,11.37
2018-12-14T02:00:57.305Z,11.60
2018-12-14T02:03:27.197Z,11.80
2018-12-14T02:05:56.946Z,10.63
2018-12-14T02:08:27.016Z,11.57
2018-12-14T02:10:56.936Z,11.37
2018-12-14T02:13:26.720Z,12.10
2018-12-14T02:16:00.152Z,11.87
2018-12-14T02:18:30.047Z,11.43
2018-12-14T02:20:59.932Z,10.77
2018-12-14T02:23:29.791Z,10.87
2018-12-14T02:25:59.581Z,11.27
2018-12-14T02:28:29.691Z,10.87
2018-12-14T02:30:59.604Z,11.97
2018-12-14T02:33:29.667Z,12.27
2018-12-14T02:35:59.573Z,11.63
2018-12-14T02:38:29.483Z,11.77
2018-12-14T02:40:59.460Z,11.73
2018-12-14T02:43:29.466Z,12.23
2018-12-14T02:45:59.351Z,12.97
2018-12-14T02:48:29.251Z,11.47
2018-12-14T02:50:59.242Z,12.63
2018-12-14T02:53:29.141Z,11.37
2018-12-14T02:55:58.963Z,11.97
2018-12-14T02:58:28.798Z,11.43
2018-12-14T03:00:58.607Z,11.47
2018-12-14T03:03:28.362Z,11.80
2018-12-14T03:05:58.317Z,11.53
2018-12-14T03:08:28.157Z,12.50
2018-12-14T03:10:57.992Z,12.17
2018-12-14T03:13:27.868Z,12.87
2018-12-14T03:15:57.647Z,12.07
2018-12-14T03:18:27.513Z,12.07
2018-12-14T03:20:57.353Z,12.53
2018-12-14T03:23:27.263Z,13.10
2018-12-14T03:25:57.268Z,12.80
2018-12-14T03:28:27.119Z,12.10
2018-12-14T03:30:56.976Z,13.60
2018-12-14T03:33:26.763Z,11.70
2018-12-14T03:35:56.722Z,11.37
2018-12-14T03:38:26.672Z,13.17
2018-12-14T03:40:56.562Z,12.37
2018-12-14T03:43:26.434Z,13.00
2018-12-14T03:45:56.243Z,12.43
2018-12-14T03:48:26.054Z,11.83
2018-12-14T03:50:55.828Z,11.43
2018-12-14T03:53:25.583Z,11.30
2018-12-14T03:55:55.468Z,10.33
2018-12-14T03:58:25.276Z,11.03
2018-12-14T04:00:55.102Z,10.87
2018-12-14T04:03:25.048Z,11.83
2018-12-14T04:05:54.879Z,11.47
2018-12-14T04:08:24.663Z,12.50
2018-12-14T04:10:54.493Z,11.53
2018-12-14T04:13:24.363Z,12.57
2018-12-14T04:15:54.121Z,12.50
2018-12-14T04:18:23.943Z,11.37
2018-12-14T04:20:53.723Z,11.50
2018-12-14T04:23:23.683Z,10.03
2018-12-14T04:25:53.504Z,8.90
2018-12-14T04:28:23.368Z,10.23
2018-12-14T04:30:53.199Z,11.00
2018-12-14T04:33:23.229Z,11.97
2018-12-14T04:35:53.053Z,12.00
2018-12-14T04:38:22.807Z,11.63
2018-12-14T04:40:52.643Z,11.93
2018-12-14T04:43:22.538Z,10.63
2018-12-14T04:45:52.308Z,12.50
2018-12-14T04:48:22.063Z,11.03
2018-12-14T04:50:52.327Z,11.70
2018-12-14T04:53:22.103Z,11.10
2018-12-14T04:55:51.929Z,10.90
2018-12-14T04:58:21.758Z,12.63
2018-12-14T05:00:51.510Z,13.20
2018-12-14T05:03:21.368Z,11.83
2018-12-14T05:05:51.161Z,12.23
2018-12-14T05:08:20.939Z,12.07
2018-12-14T05:10:50.778Z,11.63
2018-12-14T05:13:20.664Z,11.47
2018-12-14T05:15:50.744Z,10.60
2018-12-14T05:18:20.488Z,10.43
2018-12-14T05:20:50.772Z,11.33
2018-12-14T05:23:20.623Z,10.43
2018-12-14T05:25:50.433Z,10.20
2018-12-14T05:28:20.202Z,11.00
2018-12-14T05:30:50.000Z,10.87
2018-12-14T05:33:20.089Z,12.40
2018-12-14T05:35:49.943Z,12.17
2018-12-14T05:38:19.728Z,13.40
2018-12-14T05:40:49.502Z,12.80
2018-12-14T05:43:19.213Z,14.50
2018-12-14T05:45:48.948Z,12.30
2018-12-14T05:48:18.788Z,13.03
2018-12-14T05:50:48.583Z,13.60
2018-12-14T05:53:18.453Z,12.40
2018-12-14T05:55:48.243Z,11.67
2018-12-14T05:58:18.173Z,11.60
2018-12-14T06:00:47.903Z,10.63
2018-12-14T06:03:17.815Z,10.57
2018-12-14T06:05:47.768Z,12.33
2018-12-14T06:08:17.594Z,12.90
2018-12-14T06:10:47.357Z,12.07
2018-12-14T06:13:17.228Z,11.47
2018-12-14T06:15:47.108Z,11.37
2018-12-14T06:18:16.988Z,12.73
2018-12-14T06:20:46.873Z,12.17
2018-12-14T06:23:16.647Z,12.73
2018-12-14T06:25:46.687Z,13.80
2018-12-14T06:28:16.464Z,14.07
2018-12-14T06:30:46.292Z,13.87
2018-12-14T06:33:16.455Z,13.07
2018-12-14T06:35:46.293Z,13.57
2018-12-14T06:38:16.097Z,13.77
2018-12-14T06:40:45.862Z,13.57
2018-12-14T06:43:15.724Z,15.23
2018-12-14T06:45:45.540Z,15.07
2018-12-14T06:48:15.292Z,13.87
2018-12-14T06:50:45.073Z,14.07
2018-12-14T06:53:15.187Z,14.33
2018-12-14T06:55:44.898Z,13.90
2018-12-14T06:58:14.643Z,14.70
2018-12-14T07:00:44.397Z,13.50
2018-12-14T07:03:15.049Z,13.90
2018-12-14T07:05:45.091Z,12.87
2018-12-14T07:08:15.147Z,14.00
2018-12-14T07:10:44.902Z,12.47
2018-12-14T07:13:14.605Z,13.90
2018-12-14T07:15:44.389Z,13.60
2018-12-14T07:18:14.212Z,13.33
2018-12-14T07:20:44.118Z,13.83
2018-12-14T07:23:13.911Z,11.03
2018-12-14T07:25:43.767Z,9.03
2018-12-14T07:28:13.702Z,10.20
2018-12-14T07:30:43.482Z,12.03
2018-12-14T07:33:13.432Z,10.73
2018-12-14T07:35:43.170Z,11.40
2018-12-14T07:38:13.242Z,11.43
2018-12-14T07:40:43.152Z,12.97
2018-12-14T07:43:13.342Z,14.50
2018-12-14T07:45:43.037Z,14.77
2018-12-14T07:48:12.864Z,12.60
2018-12-14T07:50:42.717Z,10.67
2018-12-14T07:53:12.562Z,11.13
2018-12-14T07:55:42.882Z,11.07
2018-12-14T07:58:12.858Z,10.87
2018-12-14T08:00:42.688Z,11.93
2018-12-14T08:03:12.638Z,13.50
2018-12-14T08:05:42.442Z,13.40
2018-12-14T08:08:12.314Z,14.07
2018-12-14T08:10:42.109Z,14.43
2018-12-14T08:13:11.983Z,14.77
2018-12-14T08:15:41.787Z,13.83
2018-12-14T08:18:11.638Z,16.00
2018-12-14T08:20:41.493Z,18.10
2018-12-14T08:23:11.264Z,17.90
2018-12-14T08:25:41.057Z,19.60
2018-12-14T08:28:10.842Z,18.33
2018-12-14T08:30:40.578Z,18.27
2018-12-14T08:33:10.449Z,18.93
2018-12-14T08:35:40.198Z,18.87
2018-12-14T08:38:10.068Z,18.33
2018-12-14T08:40:39.867Z,19.53
2018-12-14T08:43:09.843Z,19.40
2018-12-14T08:45:39.764Z,18.77
2018-12-14T08:48:10.013Z,20.10
2018-12-14T08:50:39.878Z,20.17
2018-12-14T08:53:09.844Z,19.17
2018-12-14T08:55:39.717Z,17.70
2018-12-14T08:58:09.473Z,19.13
2018-12-14T09:00:39.369Z,18.80
2018-12-14T09:03:09.183Z,18.50
2018-12-14T09:05:39.003Z,19.70
2018-12-14T09:08:08.808Z,18.27
2018-12-14T09:10:38.578Z,18.60
2018-12-14T09:13:08.418Z,16.93
2018-12-14T09:15:38.243Z,17.53
2018-12-14T09:18:08.083Z,18.20
2018-12-14T09:20:37.818Z,18.07
2018-12-14T09:23:07.873Z,18.20
2018-12-14T09:25:37.605Z,17.10
2018-12-14T09:28:07.503Z,18.33
2018-12-14T09:30:42.650Z,17.10
2018-12-14T09:33:09.268Z,17.73
2018-12-14T09:35:39.103Z,18.63
2018-12-14T09:38:09.218Z,18.33
2018-12-14T09:40:38.993Z,16.97
2018-12-14T09:43:08.729Z,18.20
2018-12-14T09:45:38.519Z,17.53
2018-12-14T09:48:08.309Z,16.80
2018-12-14T09:50:38.118Z,16.87
2018-12-14T09:53:07.944Z,16.87
2018-12-14T09:55:37.779Z,16.53
2018-12-14T09:58:07.568Z,17.57
2018-12-14T10:00:37.354Z,16.80
2018-12-14T10:03:07.324Z,15.90
2018-12-14T10:05:37.341Z,15.83
2018-12-14T10:08:07.318Z,16.07
2018-12-14T10:10:37.648Z,15.50
2018-12-14T10:13:07.483Z,14.37
2018-12-14T10:15:37.203Z,14.10
2018-12-14T10:18:07.029Z,14.67
2018-12-14T10:20:36.883Z,13.47
2018-12-14T10:23:06.727Z,13.87
2018-12-14T10:25:36.488Z,14.20
2018-12-14T10:28:06.458Z,14.53
2018-12-14T10:30:36.209Z,13.47
2018-12-14T10:33:06.189Z,14.30
2018-12-14T10:35:35.938Z,14.30
2018-12-14T10:38:05.703Z,14.43
2018-12-14T10:40:35.943Z,13.60
2018-12-14T10:43:05.723Z,13.83
2018-12-14T10:45:35.778Z,14.47
2018-12-14T10:48:05.705Z,12.87
2018-12-14T10:50:39.625Z,13.27
2018-12-14T10:53:12.932Z,13.80
2018-12-14T10:55:43.028Z,12.90
2018-12-14T10:58:12.853Z,13.53
2018-12-14T11:00:47.578Z,13.93
2018-12-14T11:03:17.388Z,12.27
2018-12-14T11:05:47.239Z,13.33
2018-12-14T11:08:16.983Z,13.67
2018-12-14T11:10:47.172Z,12.63
2018-12-14T11:13:17.252Z,13.40
2018-12-14T11:15:46.948Z,13.13
2018-12-14T11:18:17.627Z,13.13
2018-12-14T11:20:47.836Z,12.43
2018-12-14T11:23:17.665Z,13.20
2018-12-14T11:25:47.588Z,13.70
2018-12-14T11:28:17.342Z,12.60
2018-12-14T11:30:47.251Z,12.87
2018-12-14T11:33:16.989Z,13.87
2018-12-14T11:35:46.808Z,13.73
2018-12-14T11:38:17.787Z,13.80
2018-12-14T11:40:47.662Z,13.53
2018-12-14T11:43:17.447Z,13.00
2018-12-14T11:45:47.303Z,12.80
2018-12-14T11:48:17.148Z,13.67
2018-12-14T11:50:46.877Z,13.50
2018-12-14T11:53:20.576Z,13.00
2018-12-14T11:55:50.532Z,13.37
2018-12-14T11:58:20.362Z,13.77
2018-12-14T12:00:50.280Z,13.63
2018-12-14T12:03:20.092Z,12.57
2018-12-14T12:05:49.863Z,13.83
2018-12-14T12:08:20.052Z,15.13
2018-12-14T12:10:49.892Z,14.50
2018-12-14T12:13:19.697Z,13.13
2018-12-14T12:15:49.467Z,14.67
2018-12-14T12:18:19.238Z,13.93
2018-12-14T12:20:49.063Z,15.43
2018-12-14T12:23:18.907Z,13.93
2018-12-14T12:25:48.657Z,14.00
2018-12-14T12:28:18.717Z,15.30
2018-12-14T12:30:48.503Z,14.23
2018-12-14T12:33:18.252Z,14.90
2018-12-14T12:35:48.087Z,14.37
2018-12-14T12:38:17.927Z,14.43
2018-12-14T12:40:47.692Z,14.90
2018-12-14T12:43:17.572Z,15.17
2018-12-14T12:45:47.298Z,14.93
2018-12-14T12:48:17.087Z,14.90
2018-12-14T12:50:46.923Z,14.10
2018-12-14T12:53:19.442Z,13.00
2018-12-14T12:55:49.322Z,14.33
2018-12-14T12:58:19.077Z,13.80
2018-12-14T13:00:48.822Z,15.07
2018-12-14T13:03:18.607Z,15.07
2018-12-14T13:05:48.353Z,13.87
2018-12-14T13:08:18.267Z,14.10
2018-12-14T13:10:48.123Z,13.93
2018-12-14T13:13:17.962Z,13.77
2018-12-14T13:15:47.805Z,14.77
2018-12-14T13:18:17.593Z,14.23
2018-12-14T13:20:47.410Z,13.50
2018-12-14T13:23:17.214Z,13.83
2018-12-14T13:25:47.152Z,13.70
2018-12-14T13:28:17.306Z,12.93
2018-12-14T13:30:47.333Z,14.10
2018-12-14T13:33:17.314Z,14.20
2018-12-14T13:35:47.127Z,13.13
2018-12-14T13:38:16.903Z,12.70
2018-12-14T13:40:46.789Z,12.30
2018-12-14T13:43:16.667Z,11.60
2018-12-14T13:45:46.533Z,12.00
2018-12-14T13:48:16.568Z,10.60
2018-12-14T13:50:46.426Z,10.40
2018-12-14T13:53:16.539Z,10.97
2018-12-14T13:55:46.225Z,11.13
2018-12-14T13:58:16.142Z,11.93
2018-12-14T14:00:46.132Z,12.97
2018-12-14T14:03:16.642Z,11.60
2018-12-14T14:05:47.382Z,11.23
2018-12-14T14:08:17.202Z,12.03
2018-12-14T14:10:47.092Z,12.20
2018-12-14T14:13:17.251Z,11.80
2018-12-14T14:15:50.676Z,11.83
2018-12-14T14:18:21.014Z,12.53
2018-12-14T14:20:51.287Z,11.43
2018-12-14T14:23:21.114Z,12.17
2018-12-14T14:25:50.886Z,11.00
2018-12-14T14:28:20.678Z,11.70
2018-12-14T14:30:50.441Z,10.83
2018-12-14T14:33:20.197Z,11.87
2018-12-14T14:35:50.077Z,13.43
2018-12-14T14:38:19.852Z,12.83
2018-12-14T14:40:49.684Z,11.90
2018-12-14T14:43:19.567Z,12.00
2018-12-14T14:45:49.467Z,11.40
2018-12-14T14:48:19.302Z,12.27
2018-12-14T14:50:49.037Z,11.20
2018-12-14T14:53:18.961Z,11.60
2018-12-14T14:55:48.917Z,12.87
2018-12-14T14:58:18.993Z,11.73
2018-12-14T15:00:48.847Z,11.77
2018-12-14T15:03:19.157Z,11.57
2018-12-14T15:05:48.967Z,11.17
2018-12-14T15:08:18.757Z,11.50
2018-12-14T15:10:48.607Z,11.73
2018-12-14T15:13:18.307Z,11.60
2018-12-14T15:15:48.137Z,12.13
2018-12-14T15:18:18.122Z,14.70
2018-12-14T15:20:47.937Z,14.90
2018-12-14T15:23:17.791Z,12.70
2018-12-14T15:25:47.582Z,13.20
2018-12-14T15:28:17.708Z,12.93
2018-12-14T15:30:47.583Z,12.07
2018-12-14T15:33:17.417Z,13.80
2018-12-14T15:35:47.287Z,16.60
2018-12-14T15:38:17.202Z,16.97
2018-12-14T15:40:47.067Z,13.03
2018-12-14T15:43:16.847Z,13.20
2018-12-14T15:45:46.878Z,13.87
2018-12-14T15:48:16.883Z,14.70
2018-12-14T15:50:47.197Z,12.73
2018-12-14T15:53:17.022Z,14.77
2018-12-14T15:55:46.892Z,14.07
2018-12-14T15:58:17.062Z,13.73
2018-12-14T16:00:46.952Z,11.60
2018-12-14T16:03:16.860Z,14.90
2018-12-14T16:05:46.603Z,12.90
2018-12-14T16:08:16.612Z,13.73
2018-12-14T16:10:46.847Z,12.87
2018-12-14T16:13:17.019Z,11.37
2018-12-14T16:15:46.848Z,14.00
2018-12-14T16:18:16.778Z,14.27
2018-12-14T16:20:46.704Z,14.77
2018-12-14T16:23:16.671Z,15.50
2018-12-14T16:25:46.602Z,14.17
2018-12-14T16:28:16.705Z,14.03
2018-12-14T16:30:47.392Z,15.00
2018-12-14T16:33:17.268Z,12.90
2018-12-14T16:35:47.063Z,13.57
2018-12-14T16:38:16.987Z,12.80
2018-12-14T16:40:46.882Z,12.73
2018-12-14T16:43:16.807Z,12.53
2018-12-14T16:45:46.767Z,12.33
2018-12-14T16:48:16.594Z,13.63
2018-12-14T16:50:46.442Z,13.10
2018-12-14T16:53:16.648Z,13.47
2018-12-14T16:55:46.748Z,13.40
2018-12-14T16:58:17.058Z,13.30
2018-12-14T17:00:46.917Z,14.20
2018-12-14T17:03:16.848Z,15.40
2018-12-14T17:05:46.728Z,16.20
2018-12-14T17:08:16.773Z,17.13
2018-12-14T17:10:46.960Z,17.07
2018-12-14T17:13:16.786Z,15.33
2018-12-14T17:15:46.558Z,14.80
2018-12-14T17:18:16.363Z,15.87
2018-12-14T17:20:46.318Z,15.07
2018-12-14T17:23:16.288Z,15.67
2018-12-14T17:25:46.158Z,15.87
2018-12-14T17:28:16.083Z,17.07
2018-12-14T17:30:45.903Z,17.30
2018-12-14T17:33:15.928Z,17.70
2018-12-14T17:35:45.749Z,17.37
2018-12-14T17:38:15.668Z,16.50
2018-12-14T17:40:45.544Z,16.20
2018-12-14T17:43:15.614Z,17.77
2018-12-14T17:45:45.469Z,18.73
2018-12-14T17:48:15.459Z,23.93
2018-12-14T17:50:45.586Z,30.03
2018-12-14T17:53:15.819Z,27.37
2018-12-14T17:55:45.659Z,27.23
2018-12-14T17:58:15.664Z,27.43
2018-12-14T18:00:45.788Z,30.60
2018-12-14T18:03:16.089Z,28.27
2018-12-14T18:05:48.987Z,23.67
2018-12-14T18:08:19.169Z,26.77
2018-12-14T18:10:49.384Z,36.63
2018-12-14T18:13:19.584Z,32.77
2018-12-14T18:15:49.543Z,33.57
2018-12-14T18:18:19.664Z,34.33
2018-12-14T18:20:49.663Z,24.03
2018-12-14T18:23:20.099Z,22.53
2018-12-14T18:25:50.083Z,22.13
2018-12-14T18:28:20.068Z,20.73
2018-12-14T18:30:50.083Z,17.67
2018-12-14T18:33:20.174Z,14.23
2018-12-14T18:35:50.119Z,15.03
2018-12-14T18:38:19.963Z,14.93
2018-12-14T18:40:49.788Z,16.57
2018-12-14T18:43:19.859Z,18.07
2018-12-14T18:45:53.158Z,17.67
2018-12-14T18:48:21.780Z,18.73
2018-12-14T18:50:51.643Z,20.70
2018-12-14T18:53:21.664Z,20.90
2018-12-14T18:55:51.474Z,21.70
2018-12-14T18:58:21.669Z,20.57
2018-12-14T19:00:51.548Z,17.40
2018-12-14T19:03:21.649Z,16.87
2018-12-14T19:05:51.639Z,17.07
2018-12-14T19:08:21.478Z,16.67
2018-12-14T19:10:51.299Z,16.10
2018-12-14T19:13:21.354Z,16.37
2018-12-14T19:15:59.339Z,16.73
2018-12-14T19:18:24.841Z,15.17
2018-12-14T19:20:54.724Z,15.33
2018-12-14T19:23:24.814Z,15.43
2018-12-14T19:25:55.149Z,16.13
2018-12-14T19:28:25.004Z,15.97
2018-12-14T19:30:55.020Z,16.53
2018-12-14T19:33:25.164Z,16.77
2018-12-14T19:35:55.034Z,17.47
2018-12-14T19:38:25.244Z,16.70
2018-12-14T19:40:55.139Z,16.17
2018-12-14T19:43:25.024Z,18.67
2018-12-14T19:45:54.935Z,15.23
2018-12-14T19:48:24.764Z,13.37
2018-12-14T19:50:54.735Z,13.80
2018-12-14T19:53:24.775Z,14.23
2018-12-14T19:55:54.574Z,16.10
2018-12-14T19:58:24.589Z,16.10
2018-12-14T20:00:54.639Z,15.93
2018-12-14T20:03:24.788Z,16.57
2018-12-14T20:05:54.749Z,16.90
2018-12-14T20:08:24.774Z,16.40
2018-12-14T20:10:54.984Z,16.63
2018-12-14T20:13:25.364Z,16.67
2018-12-14T20:15:57.683Z,17.20
2018-12-14T20:18:27.360Z,18.23
2018-12-14T20:20:57.409Z,18.10
2018-12-14T20:23:27.514Z,32.73
2018-12-14T20:25:57.579Z,22.23
2018-12-14T20:28:27.578Z,17.67
2018-12-14T20:30:57.510Z,17.37
2018-12-14T20:33:27.480Z,17.57
2018-12-14T20:35:57.436Z,17.80
2018-12-14T20:38:27.823Z,16.80
2018-12-14T20:40:57.833Z,15.63
2018-12-14T20:43:28.063Z,14.43
2018-12-14T20:45:58.108Z,16.07
2018-12-14T20:48:27.969Z,16.10
2018-12-14T20:50:57.919Z,16.33
2018-12-14T20:53:28.169Z,15.93
2018-12-14T20:55:58.098Z,14.67
2018-12-14T20:58:28.163Z,17.73
2018-12-14T21:00:59.068Z,17.33
2018-12-14T21:03:29.028Z,19.23
2018-12-14T21:05:59.269Z,17.80
2018-12-14T21:08:29.439Z,15.10
2018-12-14T21:10:59.583Z,15.27
2018-12-14T21:13:29.723Z,16.27
2018-12-14T21:15:59.874Z,16.37
2018-12-14T21:18:29.889Z,16.37
2018-12-14T21:20:59.875Z,16.70
2018-12-14T21:23:29.774Z,16.00
2018-12-14T21:25:59.797Z,16.80
2018-12-14T21:28:30.139Z,16.20
2018-12-14T21:31:00.409Z,15.17
2018-12-14T21:33:30.406Z,17.63
2018-12-14T21:36:00.388Z,17.07
2018-12-14T21:38:30.445Z,17.17
2018-12-14T21:41:00.613Z,17.30
2018-12-14T21:43:30.813Z,16.83
2018-12-14T21:46:00.693Z,16.53
2018-12-14T21:48:30.749Z,17.90
2018-12-14T21:51:04.001Z,17.73
2018-12-14T21:53:34.284Z,18.57
2018-12-14T21:56:04.573Z,18.13
2018-12-14T21:58:34.648Z,18.80
2018-12-14T22:01:04.678Z,18.80
2018-12-14T22:03:34.774Z,17.00
2018-12-14T22:06:04.824Z,16.53
2018-12-14T22:08:34.688Z,18.50
2018-12-14T22:11:04.694Z,16.13
2018-12-14T22:13:34.573Z,15.93
2018-12-14T22:16:04.668Z,16.43
2018-12-14T22:18:34.853Z,18.70
2018-12-14T22:21:04.895Z,17.90
2018-12-14T22:23:34.913Z,18.43
2018-12-14T22:26:04.940Z,16.43
2018-12-14T22:28:35.253Z,17.87
2018-12-14T22:31:05.098Z,16.30
2018-12-14T22:33:36.233Z,18.90
2018-12-14T22:36:06.128Z,16.00
2018-12-14T22:38:35.978Z,17.13
2018-12-14T22:41:05.935Z,19.43
2018-12-14T22:43:35.800Z,18.07
2018-12-14T22:46:05.719Z,19.57
2018-12-14T22:48:35.613Z,21.30
2018-12-14T22:51:05.508Z,17.47
2018-12-14T22:53:35.644Z,18.47
2018-12-14T22:56:05.753Z,18.63
2018-12-14T22:58:35.783Z,18.47
2018-12-14T23:01:05.773Z,17.57
2018-12-14T23:03:35.839Z,19.00
2018-12-14T23:06:05.717Z,18.87
2018-12-14T23:08:35.524Z,17.87
2018-12-14T23:11:05.372Z,21.23
2018-12-14T23:13:35.294Z,19.70
2018-12-14T23:16:05.113Z,20.10
2018-12-14T23:18:35.210Z,18.67
2018-12-14T23:21:05.063Z,18.30
2018-12-14T23:23:35.278Z,17.47
2018-12-14T23:26:05.348Z,18.60
2018-12-14T23:28:35.263Z,15.70
2018-12-14T23:31:05.083Z,16.17
2018-12-14T23:33:35.013Z,17.23
2018-12-14T23:36:04.828Z,16.27
2018-12-14T23:38:34.688Z,18.07
2018-12-14T23:41:04.628Z,18.13
2018-12-14T23:43:34.593Z,19.77
2018-12-14T23:46:04.573Z,19.63
2018-12-14T23:48:34.633Z,19.17
2018-12-14T23:51:04.448Z,18.53
2018-12-14T23:53:34.623Z,20.87
2018-12-14T23:56:04.513Z,21.07
2018-12-14T23:58:34.577Z,22.07
